Main page
METAR-TAF:

METAR-TAF

Airports :

Budapest Ferenc Liszt International Airport

Budapest, Hungary

latitude: 47-26N, longitude: 019-16E, elevation: 151 m

Current weather observation

The report was made 21 minutes ago, at 07:00 UTC
Wind 2 kt from variable directions
Temperature 21°C
Humidity 49%
Pressure 1019 hPa
Visibility 10 km or more
no clouds below 1500 m and no cumulonimbus

METAR: LHBP 150700Z VRB02KT CAVOK 21/10 Q1019 NOSIG

Time: 09:21 (07:21 UTC)

Forecast

The report was made 2 hours and 6 minutes ago, at 05:15 UTC
Forecast valid from 15 at 06 UTC to 16 at 06 UTC
Wind 3 kt from variable directions
Visibility 10 km or more
no clouds below 1500 m and no cumulonimbus
Becoming
from 15 at 06 UTC to 15 at 08 UTC
Wind 8 kt from the Northwest
Becoming
from 15 at 18 UTC to 15 at 21 UTC
Wind 3 kt from variable directions

TAF: LHBP 150515Z 1506/1606 VRB03KT CAVOK BECMG 1506/1508 31008KT BECMG 1518/1521 VRB03KT

Weather observations and forecasts of more than 4000 airports (METAR and TAF reports).

The available stations are represented by yellow and red dots on the map.

Hover mouse over dot to see the name of the station.

Then click to see weather observations and forecasts.

To change the map : click on the green buttons with a black cross to zoom in, on the green button with a dash to zoom out, or on the green arrows for adjacent maps.


METAR-TAF: